Time;durP1;ratioP1;P1;durP2;ratioP2;P2;SDS_P1;SDS_P2;PMS_P1;PMS_P2;Temp;Humidity;BMP_temperature;BMP_pressure;BME280_temperature;BME280_humidity;BME280_pressure;Samples;Min_cycle;Max_cycle;Signal;HPM_P1;HPM_P2
2023/04/09 00:03:31;;;;;;;13.27;12.00;;;;;;;11.71;52.83;98631.25;8414134;28;20299;-71
2023/04/09 00:07:34;;;;;;;11.93;10.73;;;;;;;11.85;52.75;98643.69;8413375;28;20220;-71
2023/04/09 00:11:37;;;;;;;12.50;11.30;;;;;;;11.79;52.54;98642.16;8413401;28;20232;-71
2023/04/09 00:15:41;;;;;;;12.43;11.13;;;;;;;11.80;52.28;98643.00;8413082;28;20220;-71
2023/04/09 00:19:44;;;;;;;12.97;11.67;;;;;;;11.84;51.90;98641.97;8412976;28;20230;-71
2023/04/09 00:23:46;;;;;;;12.73;11.43;;;;;;;11.80;52.09;98641.25;8412907;28;20228;-71
2023/04/09 00:27:49;;;;;;;13.60;11.20;;;;;;;11.78;51.91;98635.25;8413021;28;20228;-71
2023/04/09 00:31:54;;;;;;;13.13;11.70;;;;;;;11.64;52.44;98637.56;8412341;28;20249;-71
2023/04/09 00:35:56;;;;;;;11.93;10.73;;;;;;;11.71;52.44;98642.47;8412767;28;20228;-71
2023/04/09 00:39:59;;;;;;;12.63;11.40;;;;;;;11.81;51.90;98647.31;8411933;28;20240;-71
2023/04/09 00:44:02;;;;;;;13.23;11.90;;;;;;;11.86;52.20;98643.63;8412374;28;20236;-71
2023/04/09 00:48:07;;;;;;;13.67;11.90;;;;;;;11.81;51.85;98637.75;8411597;28;20319;-72
2023/04/09 00:52:10;;;;;;;12.43;11.23;;;;;;;11.86;52.65;98645.34;8411614;28;20538;-71
2023/04/09 00:56:13;;;;;;;13.00;11.80;;;;;;;11.83;52.52;98641.13;8411835;28;20439;-71
2023/04/09 01:00:16;;;;;;;14.80;13.30;;;;;;;11.87;52.78;98640.09;8412010;28;20228;-71
2023/04/09 01:04:21;;;;;;;14.67;13.20;;;;;;;11.82;53.14;98641.19;8412479;28;20232;-71
2023/04/09 01:08:32;;;;;;;14.93;13.43;;;;;;;11.89;52.93;98637.47;8412189;28;20232;-71
2023/04/09 01:12:39;;;;;;;14.50;13.00;;;;;;;11.73;53.34;98637.22;8412187;28;20224;-71
2023/04/09 01:16:44;;;;;;;14.37;12.87;;;;;;;11.71;53.26;98639.03;8411692;28;20297;-71
2023/04/09 01:20:53;;;;;;;13.60;12.27;;;;;;;11.69;52.71;98636.47;8411523;28;20239;-71
2023/04/09 01:25:04;;;;;;;13.40;12.00;;;;;;;11.64;52.53;98606.44;8410602;28;20515;-71
2023/04/09 01:29:09;;;;;;;13.30;11.93;;;;;;;11.78;52.22;98630.06;8410150;28;20235;-69
2023/04/09 01:33:12;;;;;;;13.60;12.30;;;;;;;11.54;52.44;98605.94;8410325;28;20250;-71
2023/04/09 01:37:16;;;;;;;13.20;11.90;;;;;;;11.80;52.08;98630.03;8409984;28;20233;-72
2023/04/09 01:41:21;;;;;;;13.33;11.93;;;;;;;11.76;52.23;98634.47;8410439;28;20289;-70
2023/04/09 01:45:25;;;;;;;14.17;12.67;;;;;;;11.73;52.20;98632.03;8410291;28;20220;-70
2023/04/09 01:49:29;;;;;;;13.80;12.40;;;;;;;11.59;52.74;98635.13;8410371;28;20220;-71
2023/04/09 01:53:31;;;;;;;14.23;12.73;;;;;;;11.59;52.56;98634.28;8410493;28;20226;-71
2023/04/09 01:57:34;;;;;;;13.13;11.83;;;;;;;11.62;52.70;98631.59;8409123;28;20523;-70
2023/04/09 02:01:43;;;;;;;13.93;12.53;;;;;;;11.65;52.59;98631.44;8409839;28;20269;-70
2023/04/09 02:05:50;;;;;;;13.73;12.33;;;;;;;11.58;53.14;98632.63;8409747;28;20230;-71
2023/04/09 02:09:54;;;;;;;13.73;12.33;;;;;;;11.64;52.51;98632.38;8409677;28;20224;-70
2023/04/09 02:13:58;;;;;;;15.23;13.10;;;;;;;11.50;52.81;98632.91;8409710;28;20234;-71
2023/04/09 02:18:02;;;;;;;14.47;13.00;;;;;;;11.55;52.82;98626.59;8409222;28;20232;-71
2023/04/09 02:22:05;;;;;;;12.97;11.63;;;;;;;11.60;52.89;98629.03;8409515;28;20291;-70
2023/04/09 02:26:08;;;;;;;13.20;11.90;;;;;;;11.66;52.94;98628.81;8408823;28;20531;-69
2023/04/09 02:30:11;;;;;;;14.40;11.77;;;;;;;11.64;53.18;98633.22;8409025;28;20255;-70
2023/04/09 02:34:15;;;;;;;12.67;11.37;;;;;;;11.65;53.60;98641.84;8409054;28;20491;-70
2023/04/09 02:38:18;;;;;;;14.17;12.77;;;;;;;11.58;53.67;98643.81;8409180;28;20269;-70
2023/04/09 02:42:21;;;;;;;13.73;12.43;;;;;;;11.38;53.36;98647.16;8409250;28;20312;-70
2023/04/09 02:46:24;;;;;;;14.23;12.83;;;;;;;11.49;52.90;98629.44;8409143;28;20228;-69
2023/04/09 02:50:28;;;;;;;15.33;13.83;;;;;;;11.56;53.19;98632.66;8409510;28;20235;-70
2023/04/09 02:54:31;;;;;;;14.97;13.47;;;;;;;11.48;53.14;98630.34;8409086;28;20227;-70
2023/04/09 02:58:34;;;;;;;14.80;13.40;;;;;;;11.50;53.28;98632.91;8409078;28;20227;-69
2023/04/09 03:02:36;;;;;;;14.90;13.40;;;;;;;11.45;53.22;98630.47;8409311;28;20224;-69
2023/04/09 03:06:41;;;;;;;14.47;13.07;;;;;;;11.40;53.12;98634.13;8409068;28;20512;-69
2023/04/09 03:10:44;;;;;;;14.53;13.10;;;;;;;11.33;53.23;98626.59;8413458;28;20238;-69
2023/04/09 03:14:46;;;;;;;14.17;12.77;;;;;;;11.46;52.73;98615.75;8415067;28;20307;-69
2023/04/09 03:18:49;;;;;;;14.47;13.07;;;;;;;11.34;52.70;98637.78;8414853;28;20231;-70
2023/04/09 03:22:54;;;;;;;14.47;13.07;;;;;;;11.29;52.95;98627.59;8415228;28;20235;-70
2023/04/09 03:26:57;;;;;;;14.27;12.77;;;;;;;11.16;53.41;98634.13;8415187;28;20231;-70
2023/04/09 03:31:00;;;;;;;13.33;12.03;;;;;;;10.98;53.17;98630.44;8414795;28;20235;-69
2023/04/09 03:35:03;;;;;;;13.67;12.37;;;;;;;10.94;53.34;98629.69;8415317;28;20225;-70
2023/04/09 03:39:07;;;;;;;13.87;12.57;;;;;;;10.82;53.42;98630.13;8414672;28;20227;-69
2023/04/09 03:43:09;;;;;;;13.87;12.43;;;;;;;10.82;53.39;98629.31;8414581;28;20220;-69
2023/04/09 03:47:12;;;;;;;14.20;12.80;;;;;;;10.63;54.21;98631.69;8414390;28;20239;-69
2023/04/09 03:51:15;;;;;;;14.13;12.67;;;;;;;10.67;53.83;98644.47;8414407;28;20405;-70
2023/04/09 03:55:20;;;;;;;13.83;12.43;;;;;;;10.33;54.27;98622.28;8414118;28;20238;-69
2023/04/09 03:59:22;;;;;;;14.10;12.60;;;;;;;10.54;53.77;98644.00;8413609;28;20287;-69
2023/04/09 04:03:25;;;;;;;14.77;12.77;;;;;;;10.47;53.54;98636.50;8413687;28;20229;-69
2023/04/09 04:07:28;;;;;;;14.73;13.23;;;;;;;10.50;53.32;98636.41;8413244;28;20290;-69
2023/04/09 04:11:32;;;;;;;13.60;12.30;;;;;;;10.35;53.46;98638.59;8413582;28;20226;-70
2023/04/09 04:15:39;;;;;;;13.97;12.57;;;;;;;10.31;53.34;98652.53;8412699;28;20293;-70
2023/04/09 04:19:42;;;;;;;14.57;13.10;;;;;;;10.23;53.42;98644.16;8412891;28;20227;-70
2023/04/09 04:23:45;;;;;;;16.53;14.77;;;;;;;9.90;54.25;98648.63;8413354;28;20487;-70
2023/04/09 04:27:49;;;;;;;14.67;12.83;;;;;;;10.07;53.46;98655.88;8412971;28;20247;-70
2023/04/09 04:31:52;;;;;;;14.23;12.80;;;;;;;10.03;53.58;98662.06;8412875;28;20516;-70
2023/04/09 04:36:05;;;;;;;13.63;12.17;;;;;;;10.06;52.67;98660.22;8412576;28;20232;-69
2023/04/09 04:40:09;;;;;;;14.73;13.23;;;;;;;10.05;53.24;98666.31;8412222;28;20236;-68
2023/04/09 04:44:13;;;;;;;14.03;12.63;;;;;;;9.94;53.39;98676.13;8412802;28;20231;-69
2023/04/09 04:48:16;;;;;;;15.43;13.07;;;;;;;10.00;53.32;98673.34;8412361;28;20228;-69
2023/04/09 04:52:18;;;;;;;14.43;12.93;;;;;;;9.84;52.92;98647.06;8412099;28;20559;-70
2023/04/09 04:56:21;;;;;;;14.17;12.73;;;;;;;9.83;53.72;98681.63;8411781;28;20262;-69
2023/04/09 05:00:25;;;;;;;13.77;12.37;;;;;;;9.99;53.13;98671.66;8411556;28;20240;-69
2023/04/09 05:04:28;;;;;;;14.23;12.73;;;;;;;9.95;52.97;98678.66;8411569;28;20221;-69
2023/04/09 05:08:34;;;;;;;14.13;12.73;;;;;;;10.01;52.68;98677.63;8411591;28;20227;-69
2023/04/09 05:12:36;;;;;;;22.20;18.23;;;;;;;9.91;53.19;98674.47;8411267;28;20224;-70
2023/04/09 05:16:41;;;;;;;40.03;31.90;;;;;;;10.00;52.62;98682.88;8411348;28;20224;-69
2023/04/09 05:20:43;;;;;;;23.63;20.03;;;;;;;9.98;52.45;98675.97;8411178;28;20282;-70
2023/04/09 05:24:46;;;;;;;23.10;19.73;;;;;;;10.10;52.52;98686.84;8411210;28;20224;-70
2023/04/09 05:28:49;;;;;;;19.40;16.33;;;;;;;10.27;52.26;98688.91;8410928;28;20217;-69
2023/04/09 05:32:53;;;;;;;20.30;18.10;;;;;;;10.44;52.63;98680.66;8410438;28;20239;-70
2023/04/09 05:36:56;;;;;;;17.90;15.87;;;;;;;10.63;52.40;98683.47;8410879;28;20304;-70
2023/04/09 05:40:59;;;;;;;16.67;14.97;;;;;;;11.15;51.50;98690.28;8410249;28;20545;-70
2023/04/09 05:45:02;;;;;;;17.90;15.83;;;;;;;11.40;51.21;98692.03;8410441;28;20228;-69
2023/04/09 05:49:06;;;;;;;25.17;21.60;;;;;;;11.50;50.19;98695.16;8410318;28;20220;-69
2023/04/09 05:53:09;;;;;;;21.10;18.70;;;;;;;11.96;49.51;98692.63;8409880;28;20224;-69
2023/04/09 05:57:12;;;;;;;20.23;18.10;;;;;;;12.26;49.17;98691.41;8409802;28;20246;-69
2023/04/09 06:01:15;;;;;;;17.97;15.80;;;;;;;12.32;48.98;98693.75;8409762;28;20242;-69
2023/04/09 06:05:19;;;;;;;16.67;14.93;;;;;;;12.71;47.70;98700.84;8410375;28;20538;-69
2023/04/09 06:09:22;;;;;;;16.20;14.33;;;;;;;13.01;47.05;98702.22;8410136;28;20244;-69
2023/04/09 06:13:25;;;;;;;15.30;13.60;;;;;;;13.11;47.29;98699.16;8409856;28;20228;-69
2023/04/09 06:17:29;;;;;;;15.00;13.50;;;;;;;13.53;46.14;98701.75;8409987;28;20518;-70
2023/04/09 06:21:33;;;;;;;15.50;13.90;;;;;;;13.35;46.56;98703.41;8409963;28;20224;-69
2023/04/09 06:25:36;;;;;;;14.73;13.33;;;;;;;13.33;45.97;98695.66;8409208;28;20220;-69
2023/04/09 06:29:38;;;;;;;13.57;12.27;;;;;;;13.92;45.82;98706.03;8409286;28;20243;-70
2023/04/09 06:33:41;;;;;;;13.20;11.90;;;;;;;13.75;45.34;98712.88;8409153;28;20586;-70
2023/04/09 06:37:46;;;;;;;14.03;12.73;;;;;;;13.81;43.92;98715.19;8409241;28;20243;-69
2023/04/09 06:41:48;;;;;;;13.43;12.13;;;;;;;13.65;44.91;98719.41;8409056;28;20229;-69
2023/04/09 06:45:51;;;;;;;14.27;12.90;;;;;;;13.46;45.64;98717.63;8414425;28;20457;-70
2023/04/09 06:49:54;;;;;;;14.53;13.13;;;;;;;13.46;45.76;98719.38;8415930;28;20224;-70
2023/04/09 06:53:58;;;;;;;13.47;12.17;;;;;;;14.20;43.91;98718.63;8416425;28;20405;-70
2023/04/09 06:58:02;;;;;;;12.70;11.50;;;;;;;14.47;42.99;98717.31;8415702;28;20244;-68
2023/04/09 07:02:04;;;;;;;13.30;12.00;;;;;;;14.59;42.61;98720.28;8415999;28;20300;-69
2023/04/09 07:06:07;;;;;;;12.77;11.57;;;;;;;14.50;42.91;98708.50;8415883;28;20229;-69
2023/04/09 07:10:12;;;;;;;13.97;12.67;;;;;;;15.08;41.63;98730.03;8415918;28;20229;-69
2023/04/09 07:14:14;;;;;;;13.50;12.27;;;;;;;15.39;40.73;98727.53;8415091;28;20415;-69
2023/04/09 07:18:17;;;;;;;13.40;12.17;;;;;;;14.75;42.46;98723.81;8415045;28;20243;-69
2023/04/09 07:22:21;;;;;;;13.63;12.33;;;;;;;15.37;41.05;98711.13;8415578;28;20233;-69
2023/04/09 07:26:25;;;;;;;14.00;12.70;;;;;;;15.77;39.79;98726.50;8415705;28;20239;-69
2023/04/09 07:30:28;;;;;;;13.90;12.53;;;;;;;15.65;40.10;98730.56;8414905;28;20223;-70
2023/04/09 07:34:31;;;;;;;14.43;12.50;;;;;;;16.28;41.38;98728.94;8415228;28;20239;-71
2023/04/09 07:38:34;;;;;;;14.30;13.00;;;;;;;16.13;39.37;98728.03;8414744;28;20228;-71
2023/04/09 07:42:38;;;;;;;13.53;12.30;;;;;;;16.11;39.73;98717.66;8414824;28;20539;-70
2023/04/09 07:46:41;;;;;;;13.43;12.23;;;;;;;15.96;38.39;98726.34;8414599;28;20223;-71
2023/04/09 07:50:44;;;;;;;12.93;11.73;;;;;;;16.70;37.40;98725.69;8414598;28;20507;-71
2023/04/09 07:54:47;;;;;;;13.23;12.03;;;;;;;16.37;38.64;98723.19;8412973;28;20237;-71
2023/04/09 07:58:52;;;;;;;14.33;12.97;;;;;;;16.30;37.37;98725.34;8414516;28;20517;-71
2023/04/09 08:02:56;;;;;;;13.60;12.30;;;;;;;17.23;37.02;98728.75;8413981;28;20271;-71
2023/04/09 08:06:59;;;;;;;12.60;11.50;;;;;;;17.41;36.08;98736.44;8414157;28;20238;-71
2023/04/09 08:11:02;;;;;;;13.33;12.13;;;;;;;17.26;35.93;98738.19;8414275;28;20224;-71
2023/04/09 08:15:07;;;;;;;12.43;11.33;;;;;;;17.61;35.54;98727.38;8413421;28;20236;-71
2023/04/09 08:19:10;;;;;;;11.77;10.77;;;;;;;17.51;34.81;98734.94;8412927;28;20229;-70
2023/04/09 08:23:13;;;;;;;11.10;10.10;;;;;;;18.07;34.03;98741.13;8413352;28;20238;-71
2023/04/09 08:27:16;;;;;;;11.57;10.60;;;;;;;18.21;32.96;98737.63;8413178;28;20232;-70
2023/04/09 08:31:20;;;;;;;10.37;9.47;;;;;;;18.07;32.73;98737.66;8413366;28;20293;-70
2023/04/09 08:35:23;;;;;;;12.03;11.00;;;;;;;18.07;32.86;98742.91;8412937;28;20239;-71
2023/04/09 08:39:26;;;;;;;11.70;10.70;;;;;;;18.34;32.12;98737.69;8413384;28;20239;-71
2023/04/09 08:43:30;;;;;;;10.63;9.73;;;;;;;19.12;30.58;98735.22;8412797;28;20230;-70
2023/04/09 08:47:58;;;;;;;10.87;9.97;;;;;;;19.04;31.75;98734.91;8412255;28;20299;-71
2023/04/09 08:52:04;;;;;;;11.03;10.13;;;;;;;19.09;31.32;98734.56;8412493;28;20542;-71
2023/04/09 08:56:07;;;;;;;8.07;7.37;;;;;;;18.43;29.80;98718.75;8411908;28;20235;-70
2023/04/09 09:00:11;;;;;;;10.07;9.17;;;;;;;19.45;29.60;98728.59;8412054;28;20235;-71
2023/04/09 09:04:15;;;;;;;9.37;8.57;;;;;;;18.79;29.96;98729.53;8411896;28;20561;-70
2023/04/09 09:08:23;;;;;;;8.70;8.00;;;;;;;18.90;29.57;98724.47;8411624;28;20236;-71
2023/04/09 09:12:31;;;;;;;9.67;8.87;;;;;;;17.27;31.50;98734.63;8411979;28;20289;-71
2023/04/09 09:16:34;;;;;;;9.97;9.17;;;;;;;18.18;30.09;98732.56;8411691;28;20242;-71
2023/04/09 09:20:39;;;;;;;9.67;8.80;;;;;;;18.30;30.63;98733.59;8411681;28;20223;-72
2023/04/09 09:24:47;;;;;;;10.27;9.37;;;;;;;17.98;29.98;98733.84;8411577;28;20234;-72
2023/04/09 09:28:52;;;;;;;9.97;9.13;;;;;;;19.58;28.94;98733.03;8410892;28;20232;-72
2023/04/09 09:33:05;;;;;;;10.13;9.33;;;;;;;18.43;30.06;98736.25;8410884;28;20569;-72
2023/04/09 09:37:26;;;;;;;9.03;8.23;;;;;;;20.34;28.60;98732.06;8410091;28;20340;-72
2023/04/09 09:41:29;;;;;;;9.10;8.30;;;;;;;18.45;29.10;98695.88;8410756;28;20225;-72
2023/04/09 09:45:33;;;;;;;8.03;7.40;;;;;;;19.94;27.86;98740.16;8410848;28;20229;-72
2023/04/09 09:49:36;;;;;;;8.70;7.83;;;;;;;20.29;29.07;98732.38;8411317;28;20231;-73
2023/04/09 09:53:44;;;;;;;9.50;8.53;;;;;;;18.40;29.25;98725.97;8410473;28;20481;-73
2023/04/09 09:57:52;;;;;;;8.53;7.83;;;;;;;18.05;31.66;98739.53;8410347;28;20255;-72
2023/04/09 10:01:58;;;;;;;7.83;7.13;;;;;;;18.26;29.06;98730.31;8410330;28;20224;-72
2023/04/09 10:06:01;;;;;;;7.73;7.13;;;;;;;19.79;28.52;98734.19;8409879;28;20257;-72
2023/04/09 10:10:07;;;;;;;8.27;7.57;;;;;;;20.51;26.94;98723.75;8409781;28;20229;-72
2023/04/09 10:14:10;;;;;;;8.47;7.77;;;;;;;18.36;28.16;98722.69;8381956;28;20501;-71
2023/04/09 10:18:14;;;;;;;7.10;6.60;;;;;;;19.73;27.60;98724.09;8409363;28;20225;-70
2023/04/09 10:22:21;;;;;;;9.00;8.30;;;;;;;16.47;30.59;98718.28;8410307;28;20314;-70
2023/04/09 10:26:29;;;;;;;7.83;7.23;;;;;;;17.48;29.89;98720.28;8410647;28;20227;-71
2023/04/09 10:30:33;;;;;;;8.73;8.00;;;;;;;17.89;30.83;98716.06;8410501;28;20223;-71
2023/04/09 10:34:38;;;;;;;8.90;8.20;;;;;;;18.77;28.56;98716.53;8409435;28;20228;-71
2023/04/09 10:38:41;;;;;;;8.70;7.90;;;;;;;20.38;27.24;98709.00;8410536;28;20227;-71
2023/04/09 10:42:46;;;;;;;9.00;8.20;;;;;;;19.53;26.97;98710.56;8410251;28;20232;-71
2023/04/09 10:46:49;;;;;;;8.53;7.73;;;;;;;18.23;29.82;98683.31;8410014;28;20235;-71
2023/04/09 10:50:53;;;;;;;8.90;8.20;;;;;;;19.86;28.65;98689.94;8410320;28;20224;-71
2023/04/09 10:54:56;;;;;;;7.90;7.23;;;;;;;19.91;27.67;98699.16;8409763;28;20242;-71
2023/04/09 10:59:00;;;;;;;7.20;6.60;;;;;;;19.17;27.94;98692.88;8409387;28;20251;-71
2023/04/09 11:03:16;;;;;;;7.60;7.00;;;;;;;18.81;28.14;98686.56;8409861;28;20232;-71
2023/04/09 11:07:22;;;;;;;7.17;6.57;;;;;;;18.91;28.27;98692.03;8410495;28;20511;-71
2023/04/09 11:11:27;;;;;;;7.97;7.37;;;;;;;17.48;28.63;98690.63;8410613;28;20216;-71
2023/04/09 11:15:34;;;;;;;7.20;6.60;;;;;;;18.10;29.82;98691.13;8409922;28;20299;-72
2023/04/09 11:19:37;;;;;;;8.37;7.63;;;;;;;18.84;27.85;98686.34;8410191;28;20236;-72
2023/04/09 11:23:39;;;;;;;7.57;6.97;;;;;;;19.31;27.76;98668.34;8410140;28;20231;-71
2023/04/09 11:27:45;;;;;;;7.20;6.60;;;;;;;19.67;26.82;98682.47;8409638;28;20221;-72
2023/04/09 11:31:51;;;;;;;7.43;6.83;;;;;;;19.71;27.30;98681.31;8414475;28;20224;-71
2023/04/09 11:35:54;;;;;;;8.13;7.43;;;;;;;21.18;25.28;98682.84;8414227;28;20235;-72
2023/04/09 11:39:57;;;;;;;7.33;6.73;;;;;;;21.71;25.32;98684.09;8415548;28;20271;-72
2023/04/09 11:44:03;;;;;;;7.40;6.80;;;;;;;21.69;24.70;98688.66;8415730;28;20222;-71
2023/04/09 11:48:08;;;;;;;7.37;6.77;;;;;;;20.95;25.75;98667.97;8413300;28;20220;-71
2023/04/09 11:52:11;;;;;;;6.60;6.10;;;;;;;20.93;25.09;98672.50;8414690;28;20253;-71
2023/04/09 11:56:14;;;;;;;5.50;5.10;;;;;;;22.15;23.02;98679.72;8414167;28;20258;-71
2023/04/09 12:00:17;;;;;;;6.17;5.67;;;;;;;22.02;22.66;98677.22;8414055;28;20231;-72
2023/04/09 12:04:21;;;;;;;5.70;5.30;;;;;;;22.62;22.64;98675.84;8414471;28;20531;-71
2023/04/09 12:08:24;;;;;;;5.33;4.93;;;;;;;22.09;21.54;98674.94;8413924;28;20291;-72
2023/04/09 12:12:27;;;;;;;5.97;5.47;;;;;;;20.23;23.17;98672.31;8413868;28;20224;-72
2023/04/09 12:16:30;;;;;;;5.00;4.70;;;;;;;22.41;22.79;98659.16;8413701;28;20231;-72
2023/04/09 12:20:38;;;;;;;5.27;4.87;;;;;;;22.40;20.98;98668.84;8413772;28;20224;-71
2023/04/09 12:24:41;;;;;;;5.10;4.80;;;;;;;20.10;24.38;98666.28;8413631;28;20297;-71
2023/04/09 12:28:43;;;;;;;5.70;5.30;;;;;;;19.86;23.75;98659.22;8413204;28;20224;-71
2023/04/09 12:32:46;;;;;;;4.90;4.60;;;;;;;21.57;22.50;98672.00;8412957;28;20224;-71
2023/04/09 12:36:50;;;;;;;5.67;5.27;;;;;;;21.05;22.31;98661.03;8412851;28;20223;-71
2023/04/09 12:40:53;;;;;;;6.00;5.50;;;;;;;21.07;22.53;98653.84;8412148;28;20232;-72
2023/04/09 12:44:56;;;;;;;5.60;5.20;;;;;;;20.10;23.01;98656.63;8412517;28;20240;-72
2023/04/09 12:48:58;;;;;;;5.93;5.53;;;;;;;20.29;22.91;98650.84;8412500;28;20228;-72
2023/04/09 12:53:02;;;;;;;6.27;5.80;;;;;;;20.56;22.41;98655.03;8412242;28;20216;-72
2023/04/09 12:57:05;;;;;;;5.47;5.07;;;;;;;21.37;22.81;98645.38;8412176;28;20243;-71
2023/04/09 13:01:08;;;;;;;6.07;5.60;;;;;;;20.44;23.66;98642.78;8412506;28;20220;-71
2023/04/09 13:05:11;;;;;;;5.83;4.83;;;;;;;20.63;25.30;98624.69;8412286;28;20238;-71
2023/04/09 13:09:15;;;;;;;5.20;4.80;;;;;;;21.05;22.77;98634.69;8411854;28;20233;-71
2023/04/09 13:13:18;;;;;;;5.30;4.43;;;;;;;20.90;22.92;98626.19;8411490;28;20550;-71
2023/04/09 13:17:21;;;;;;;5.77;5.27;;;;;;;20.94;23.12;98634.69;8411582;28;20522;-71
2023/04/09 13:21:25;;;;;;;5.10;4.70;;;;;;;21.94;22.07;98629.53;8411674;28;20224;-72
2023/04/09 13:25:29;;;;;;;4.93;4.60;;;;;;;19.68;23.61;98621.91;8411664;28;20231;-72
2023/04/09 13:29:32;;;;;;;5.13;4.73;;;;;;;20.51;22.69;98622.97;8411210;28;20221;-72
2023/04/09 13:33:35;;;;;;;5.00;4.70;;;;;;;19.88;22.74;98623.16;8411398;28;20227;-72
2023/04/09 13:37:38;;;;;;;5.70;5.30;;;;;;;18.69;24.68;98613.88;8410994;28;20231;-71
2023/04/09 13:41:42;;;;;;;5.43;5.07;;;;;;;19.21;24.56;98620.88;8410935;28;20230;-71
2023/04/09 13:45:45;;;;;;;5.03;4.63;;;;;;;18.69;25.09;98617.34;8410432;28;20225;-71
2023/04/09 13:49:50;;;;;;;5.07;4.57;;;;;;;18.81;32.02;98610.47;8410469;28;20228;-72
2023/04/09 13:53:53;;;;;;;6.13;4.67;;;;;;;19.82;36.27;98622.75;8410751;28;20296;-72
2023/04/09 13:57:57;;;;;;;5.00;4.60;;;;;;;18.51;26.90;98611.56;8410379;28;20327;-73
2023/04/09 14:02:00;;;;;;;6.17;5.67;;;;;;;17.90;27.40;98608.53;8410669;28;20244;-72
2023/04/09 14:06:03;;;;;;;5.07;4.67;;;;;;;18.94;25.93;98600.81;8411357;28;20246;-73
2023/04/09 14:10:07;;;;;;;4.77;4.37;;;;;;;20.09;24.75;98601.53;8410118;28;20414;-72
2023/04/09 14:14:11;;;;;;;5.50;5.10;;;;;;;19.24;25.01;98602.25;8410986;28;20535;-70
2023/04/09 14:18:15;;;;;;;5.07;4.77;;;;;;;19.39;25.13;98594.25;8410826;28;20232;-71
2023/04/09 14:22:21;;;;;;;5.23;4.83;;;;;;;18.54;25.79;98542.31;8410910;28;20232;-71
2023/04/09 14:26:24;;;;;;;4.97;4.67;;;;;;;18.56;25.55;98590.25;8410023;28;20229;-70
2023/04/09 14:30:29;;;;;;;5.63;5.17;;;;;;;18.24;25.96;98593.25;8411077;28;20241;-71
2023/04/09 14:34:33;;;;;;;5.20;4.80;;;;;;;18.42;27.33;98580.69;8411310;28;20225;-72
2023/04/09 14:38:36;;;;;;;5.50;5.10;;;;;;;18.06;26.42;98576.09;8410109;28;20238;-73
2023/04/09 14:42:43;;;;;;;5.23;4.83;;;;;;;17.88;26.94;98580.78;8410321;28;20241;-71
2023/04/09 14:46:48;;;;;;;4.97;4.67;;;;;;;17.71;27.94;98573.97;8410091;28;20227;-72
2023/04/09 14:50:51;;;;;;;6.43;5.83;;;;;;;17.67;27.39;98575.94;8409907;28;20239;-72
2023/04/09 14:54:54;;;;;;;5.13;4.73;;;;;;;18.73;26.47;98573.38;8409158;28;20534;-72
2023/04/09 14:58:57;;;;;;;5.27;4.87;;;;;;;19.16;25.99;98580.13;8409204;28;20228;-72
2023/04/09 15:03:01;;;;;;;5.30;4.80;;;;;;;19.33;25.82;98570.09;8409121;28;20325;-71
2023/04/09 15:07:05;;;;;;;5.47;5.07;;;;;;;19.85;25.66;98569.97;8414337;28;20224;-71
2023/04/09 15:11:08;;;;;;;5.97;5.57;;;;;;;17.38;27.49;98567.28;8414744;28;20416;-70
2023/04/09 15:15:13;;;;;;;5.57;5.17;;;;;;;19.33;26.15;98554.34;8415675;28;20227;-71
2023/04/09 15:19:17;;;;;;;5.27;4.87;;;;;;;19.81;25.37;98563.25;8415316;28;20374;-71
2023/04/09 15:23:20;;;;;;;5.27;4.87;;;;;;;19.70;24.64;98564.00;8415517;28;20254;-71
2023/04/09 15:27:23;;;;;;;5.83;5.43;;;;;;;19.65;24.61;98563.50;8415305;28;20247;-71
2023/04/09 15:31:26;;;;;;;7.30;6.43;;;;;;;19.31;25.69;98548.38;8415083;28;20236;-72
2023/04/09 15:35:30;;;;;;;6.03;5.63;;;;;;;19.06;25.39;98545.81;8415585;28;20266;-72
2023/04/09 15:39:33;;;;;;;6.67;6.17;;;;;;;17.85;26.57;98547.72;8414407;28;20240;-72
2023/04/09 15:43:37;;;;;;;5.27;4.87;;;;;;;19.04;25.46;98556.41;8414645;28;20224;-73
2023/04/09 15:47:39;;;;;;;5.47;4.97;;;;;;;19.30;26.17;98543.22;8414035;28;20234;-72
2023/04/09 15:51:44;;;;;;;5.50;5.10;;;;;;;18.71;25.81;98551.66;8414697;28;20224;-73
2023/04/09 15:55:48;;;;;;;5.43;5.03;;;;;;;18.55;25.69;98549.25;8414109;28;20259;-71
2023/04/09 15:59:51;;;;;;;5.63;5.23;;;;;;;18.30;25.34;98542.19;8414369;28;20324;-72
2023/04/09 16:03:54;;;;;;;5.33;4.93;;;;;;;18.12;26.71;98546.88;8414109;28;20373;-72
2023/04/09 16:07:58;;;;;;;5.70;5.30;;;;;;;18.01;26.27;98549.34;8414058;28;20217;-72
2023/04/09 16:12:02;;;;;;;6.00;5.60;;;;;;;18.37;25.89;98548.69;8413192;28;20227;-73
2023/04/09 16:16:06;;;;;;;5.20;4.90;;;;;;;18.35;26.92;98535.72;8413130;28;20237;-72
2023/04/09 16:20:11;;;;;;;5.40;4.90;;;;;;;18.53;26.72;98551.13;8413508;28;20234;-71
2023/04/09 16:24:15;;;;;;;8.80;7.57;;;;;;;18.00;26.97;98552.94;8412835;28;20246;-72
2023/04/09 16:28:19;;;;;;;8.53;7.83;;;;;;;18.17;27.25;98544.78;8413049;28;20239;-72
2023/04/09 16:32:22;;;;;;;5.67;5.17;;;;;;;18.02;27.71;98536.16;8412855;28;20228;-72
2023/04/09 16:36:26;;;;;;;6.20;5.70;;;;;;;18.21;27.34;98545.44;8412738;28;20891;-72
2023/04/09 16:40:31;;;;;;;6.03;5.63;;;;;;;17.91;27.23;98546.50;8412605;28;20392;-72
2023/04/09 16:44:33;;;;;;;5.83;5.33;;;;;;;18.12;27.31;98550.31;8412108;28;20224;-72
2023/04/09 16:48:40;;;;;;;5.53;5.03;;;;;;;18.16;27.07;98549.19;8412022;28;20523;-72
2023/04/09 16:52:43;;;;;;;5.90;5.50;;;;;;;17.43;27.27;98531.19;8411678;28;20447;-71
2023/04/09 16:56:48;;;;;;;6.20;5.70;;;;;;;17.52;27.29;98540.25;8411737;28;20229;-72
2023/04/09 17:00:51;;;;;;;6.23;5.77;;;;;;;17.87;27.84;98540.63;8411974;28;20216;-72
2023/04/09 17:04:53;;;;;;;6.13;5.63;;;;;;;17.77;28.05;98542.97;8411583;28;20223;-71
2023/04/09 17:08:56;;;;;;;5.93;5.43;;;;;;;17.49;28.51;98536.03;8411432;28;20228;-71
2023/04/09 17:13:02;;;;;;;4.87;4.57;;;;;;;17.30;28.61;98546.00;8411927;28;20230;-72
2023/04/09 17:17:05;;;;;;;5.47;5.07;;;;;;;17.58;28.13;98552.94;8411679;28;20239;-72
2023/04/09 17:21:08;;;;;;;6.43;5.93;;;;;;;15.98;31.18;98558.13;8410761;28;20239;-72
2023/04/09 17:25:11;;;;;;;6.90;6.20;;;;;;;15.58;32.22;98556.91;8411218;28;20570;-71
2023/04/09 17:29:16;;;;;;;6.50;6.00;;;;;;;15.58;33.07;98562.13;8410972;28;20427;-72
2023/04/09 17:33:19;;;;;;;6.87;6.27;;;;;;;15.41;33.85;98565.66;8410876;28;20224;-71
2023/04/09 17:37:22;;;;;;;7.23;6.63;;;;;;;15.68;33.84;98571.13;8411378;28;20233;-71
2023/04/09 17:41:26;;;;;;;7.33;6.70;;;;;;;15.42;34.56;98562.97;8411301;28;20472;-71
2023/04/09 17:45:30;;;;;;;7.37;6.67;;;;;;;15.49;34.59;98567.84;8411287;28;20225;-72
2023/04/09 17:49:33;;;;;;;6.60;6.10;;;;;;;15.34;35.67;98564.31;8412167;28;20235;-71
2023/04/09 17:53:36;;;;;;;6.63;6.13;;;;;;;15.87;34.01;98577.97;8410815;28;20224;-72
2023/04/09 17:57:39;;;;;;;6.80;6.30;;;;;;;15.34;34.45;98586.00;8410649;28;20243;-72
2023/04/09 18:01:43;;;;;;;7.13;6.43;;;;;;;15.40;34.72;98580.47;8410136;28;20236;-73
2023/04/09 18:05:46;;;;;;;7.50;6.80;;;;;;;15.30;34.63;98581.88;8410227;28;20216;-72
2023/04/09 18:09:49;;;;;;;7.77;7.10;;;;;;;15.06;35.70;98591.88;8409781;28;20239;-71
2023/04/09 18:13:52;;;;;;;7.53;6.93;;;;;;;14.61;36.84;98567.25;8409690;28;20231;-71
2023/04/09 18:17:57;;;;;;;6.97;6.47;;;;;;;14.86;37.16;98595.50;8409277;28;20311;-73
2023/04/09 18:21:59;;;;;;;7.43;6.83;;;;;;;14.86;37.55;98605.94;8409514;28;20539;-71
2023/04/09 18:26:02;;;;;;;7.40;6.80;;;;;;;14.98;37.35;98604.47;8411657;28;20374;-72
2023/04/09 18:30:07;;;;;;;7.20;6.60;;;;;;;14.80;37.95;98601.06;8409949;28;20220;-73
2023/04/09 18:34:13;;;;;;;7.97;7.27;;;;;;;14.91;37.36;98597.88;8393608;28;20234;-73
2023/04/09 18:38:16;;;;;;;7.67;7.07;;;;;;;14.98;37.50;98614.91;8410835;28;20249;-73
2023/04/09 18:42:21;;;;;;;8.60;7.80;;;;;;;15.05;37.25;98609.28;8417527;28;20310;-72
2023/04/09 18:46:24;;;;;;;9.23;8.20;;;;;;;14.76;37.47;98565.63;8418124;28;20314;-72
2023/04/09 18:50:30;;;;;;;9.63;8.77;;;;;;;14.79;38.11;98615.88;8417823;28;20228;-72
2023/04/09 18:54:35;;;;;;;9.33;8.53;;;;;;;14.92;38.31;98631.69;8416593;28;20527;-72
2023/04/09 18:58:39;;;;;;;8.47;7.73;;;;;;;15.37;37.13;98637.22;8415296;28;20234;-72